createdAt,value
2023-05-05T00:03:42.817Z,100967.45
2023-05-05T00:08:46.535Z,100966.92
2023-05-05T00:13:49.828Z,100970.93
2023-05-05T00:18:52.937Z,100977.02
2023-05-05T00:23:56.157Z,100972.46
2023-05-05T00:28:59.259Z,100973.67
2023-05-05T00:34:02.279Z,100968.08
2023-05-05T00:39:05.281Z,100967.20
2023-05-05T00:44:08.895Z,100967.54
2023-05-05T00:49:12.563Z,100963.14
2023-05-05T00:54:15.832Z,100963.33
2023-05-05T00:59:19.042Z,100958.08
2023-05-05T01:04:22.358Z,100954.56
2023-05-05T01:09:32.400Z,100952.98
2023-05-05T01:14:39.836Z,100955.57
2023-05-05T01:19:58.098Z,100956.59
2023-05-05T01:25:48.322Z,100951.54
2023-05-05T01:31:03.414Z,100951.67
2023-05-05T01:36:16.316Z,100949.23
2023-05-05T01:41:34.708Z,100953.38
2023-05-05T01:46:38.230Z,100954.08
2023-05-05T01:51:42.416Z,100950.92
2023-05-05T01:56:46.483Z,100955.59
2023-05-05T02:01:50.722Z,100955.94
2023-05-05T02:06:56.574Z,100952.26
2023-05-05T02:12:02.454Z,100948.05
2023-05-05T02:17:05.590Z,100947.33
2023-05-05T02:22:08.907Z,100950.95
2023-05-05T02:27:12.500Z,100953.52
2023-05-05T02:32:20.843Z,100951.23
2023-05-05T02:37:27.776Z,100958.88
2023-05-05T02:42:41.856Z,100960.21
2023-05-05T02:47:45.091Z,100966.61
2023-05-05T02:52:48.438Z,100967.78
2023-05-05T02:58:14.178Z,100971.05
2023-05-05T03:03:44.934Z,100970.66
2023-05-05T03:09:02.996Z,100970.45
2023-05-05T03:14:10.807Z,100976.68
2023-05-05T03:19:18.192Z,100974.41
2023-05-05T03:24:21.663Z,100989.54
2023-05-05T03:29:25.561Z,100989.73
2023-05-05T03:34:28.674Z,100997.55
2023-05-05T03:39:31.861Z,101001.73
2023-05-05T03:44:36.848Z,101002.60
2023-05-05T03:49:39.864Z,101002.60
2023-05-05T03:54:43.259Z,101008.36
2023-05-05T03:59:46.786Z,101011.70
2023-05-05T04:04:49.786Z,101017.45
2023-05-05T04:09:53.005Z,101022.52
2023-05-05T04:14:56.108Z,101026.52
2023-05-05T04:19:59.318Z,101029.11
2023-05-05T04:25:02.679Z,101031.21
2023-05-05T04:30:07.069Z,101036.45
2023-05-05T04:35:10.296Z,101036.61
2023-05-05T04:40:13.708Z,101040.45
2023-05-05T04:45:16.807Z,101047.23
2023-05-05T04:50:19.946Z,101046.73
2023-05-05T04:55:23.061Z,101053.92
2023-05-05T05:00:26.136Z,101057.33
2023-05-05T05:05:29.252Z,101061.66
2023-05-05T05:10:32.348Z,101063.55
2023-05-05T05:15:38.430Z,101072.46
2023-05-05T05:20:41.644Z,101077.25
2023-05-05T05:25:44.756Z,101079.67
2023-05-05T05:30:48.046Z,101079.17
2023-05-05T05:35:51.072Z,101085.38
2023-05-05T05:40:54.688Z,101088.10
2023-05-05T05:45:57.678Z,101091.54
2023-05-05T05:51:02.236Z,101093.09
2023-05-05T05:56:06.141Z,101097.76
2023-05-05T06:01:09.113Z,101098.48
2023-05-05T06:06:12.181Z,101095.91
2023-05-05T06:11:15.286Z,101097.88
2023-05-05T06:16:18.401Z,101103.02
2023-05-05T06:21:21.810Z,101109.86
2023-05-05T06:26:26.350Z,101116.94
2023-05-05T06:31:29.588Z,101115.48
2023-05-05T06:36:32.849Z,101115.86
2023-05-05T06:41:36.293Z,101116.59
2023-05-05T06:46:39.529Z,101107.88
2023-05-05T06:51:43.052Z,101114.30
2023-05-05T06:56:46.958Z,101123.32
2023-05-05T07:01:51.187Z,101118.95
2023-05-05T07:06:55.547Z,101113.90
2023-05-05T07:11:58.773Z,101117.77
2023-05-05T07:17:01.942Z,101118.68
2023-05-05T07:22:05.287Z,101115.32
2023-05-05T07:27:08.721Z,101114.27
2023-05-05T07:32:12.053Z,101114.29
2023-05-05T07:37:15.311Z,101124.33
2023-05-05T07:42:18.526Z,101123.13
2023-05-05T07:47:21.817Z,101130.73
2023-05-05T07:52:43.703Z,101126.31
2023-05-05T07:57:49.852Z,101128.41
2023-05-05T08:02:53.119Z,101130.58
2023-05-05T08:07:56.285Z,101140.20
2023-05-05T08:12:59.436Z,101143.63
2023-05-05T08:18:02.662Z,101137.29
2023-05-05T08:23:06.432Z,101140.40
2023-05-05T08:28:09.639Z,101139.81
2023-05-05T08:33:13.012Z,101137.71
2023-05-05T08:38:16.473Z,101136.99
2023-05-05T08:43:22.925Z,101135.54
2023-05-05T08:48:28.565Z,101151.05
2023-05-05T08:53:34.205Z,101144.19
2023-05-05T08:58:37.807Z,101154.18
2023-05-05T09:03:41.141Z,101147.98
2023-05-05T09:08:44.749Z,101153.95
2023-05-05T09:19:09.101Z,101155.73
2023-05-05T09:24:13.471Z,101161.48
2023-05-05T09:29:23.429Z,101162.27
2023-05-05T09:34:26.967Z,101160.87
2023-05-05T09:39:30.038Z,101157.08
2023-05-05T09:44:35.289Z,101166.44
2023-05-05T09:49:39.020Z,101160.95
2023-05-05T09:54:43.461Z,101160.05
2023-05-05T10:00:16.262Z,101150.55
2023-05-05T10:05:19.614Z,101156.33
2023-05-05T10:10:22.871Z,101155.27
2023-05-05T10:15:26.090Z,101164.22
2023-05-05T10:20:33.375Z,101149.81
2023-05-05T10:25:47.456Z,101152.80
2023-05-05T10:30:54.579Z,101158.39
2023-05-05T10:36:05.563Z,101151.90
2023-05-05T10:41:10.496Z,101151.62
2023-05-05T10:46:13.779Z,101152.58
2023-05-05T10:51:53.086Z,101151.95
2023-05-05T10:56:58.252Z,101146.23
2023-05-05T11:02:01.456Z,101144.00
2023-05-05T11:07:14.722Z,101136.82
2023-05-05T11:12:18.224Z,101136.99
2023-05-05T11:17:47.280Z,101133.52
2023-05-05T11:23:02.749Z,101136.00
2023-05-05T11:28:08.853Z,101129.17
2023-05-05T11:33:30.710Z,101121.18
2023-05-05T11:38:36.637Z,101117.08
2023-05-05T11:43:41.891Z,101119.07
2023-05-05T11:48:49.257Z,101111.62
2023-05-05T11:53:52.821Z,101114.91
2023-05-05T11:59:09.866Z,101114.22
2023-05-05T12:04:16.485Z,101110.34
2023-05-05T12:09:21.291Z,101117.87
2023-05-05T12:14:25.892Z,101117.35
2023-05-05T12:19:33.289Z,101111.50
2023-05-05T12:24:36.464Z,101111.23
2023-05-05T12:29:39.568Z,101113.36
2023-05-05T12:34:43.402Z,101102.73
2023-05-05T12:39:46.509Z,101097.70
2023-05-05T12:44:49.925Z,101101.98
2023-05-05T12:49:53.652Z,101104.90
2023-05-05T12:55:00.248Z,101105.84
2023-05-05T13:00:15.646Z,101106.45
2023-05-05T13:05:33.182Z,101104.45
2023-05-05T13:10:36.616Z,101096.15
2023-05-05T13:15:39.709Z,101094.14
2023-05-05T13:20:42.812Z,101089.20
2023-05-05T13:25:46.008Z,101083.45
2023-05-05T13:30:49.145Z,101079.23
2023-05-05T13:35:52.347Z,101071.27
2023-05-05T13:40:55.560Z,101070.99
2023-05-05T13:46:08.639Z,101073.48
2023-05-05T13:51:16.532Z,101072.30
2023-05-05T13:56:19.949Z,101069.56
2023-05-05T14:01:23.112Z,101073.34
2023-05-05T14:06:26.558Z,101066.25
2023-05-05T14:11:31.725Z,101056.57
2023-05-05T14:16:35.023Z,101059.81
2023-05-05T14:21:38.344Z,101052.80
2023-05-05T14:26:41.363Z,101053.80
2023-05-05T14:31:44.366Z,101042.48
2023-05-05T14:36:47.822Z,101052.66
2023-05-05T14:41:51.195Z,101053.35
2023-05-05T14:46:54.296Z,101056.54
2023-05-05T14:51:57.421Z,101052.60
2023-05-05T14:57:00.644Z,101062.52
2023-05-05T15:02:03.836Z,101058.04
2023-05-05T15:07:06.954Z,101058.65
2023-05-05T15:12:09.942Z,101055.70
2023-05-05T15:17:13.160Z,101054.58
2023-05-05T15:22:16.158Z,101061.45
2023-05-05T15:27:19.172Z,101062.86
2023-05-05T15:32:22.340Z,101052.26
2023-05-05T15:37:25.387Z,101051.33
2023-05-05T15:42:28.595Z,101054.68
2023-05-05T15:47:31.683Z,101059.21
2023-05-05T15:52:35.117Z,101046.88
2023-05-05T15:57:39.978Z,101045.89
2023-05-05T16:02:43.229Z,101041.67
2023-05-05T16:07:46.723Z,101045.69
2023-05-05T16:12:50.253Z,101045.41
2023-05-05T16:17:53.375Z,101041.09
2023-05-05T16:22:57.474Z,101036.47
2023-05-05T16:28:01.804Z,101028.49
2023-05-05T16:33:05.040Z,101030.06
2023-05-05T16:38:08.010Z,101024.61
2023-05-05T16:43:11.138Z,101036.07
2023-05-05T16:48:14.858Z,101033.61
2023-05-05T16:53:18.059Z,101028.28
2023-05-05T16:58:22.583Z,101035.09
2023-05-05T17:03:25.717Z,101041.60
2023-05-05T17:08:28.682Z,101041.96
2023-05-05T17:13:31.826Z,101040.02
2023-05-05T17:18:34.945Z,101044.17
2023-05-05T17:23:37.959Z,101051.49
2023-05-05T17:28:41.148Z,101055.47
2023-05-05T17:33:44.164Z,101063.77
2023-05-05T17:38:47.274Z,101066.47
2023-05-05T17:43:50.372Z,101068.61
2023-05-05T17:48:53.848Z,101071.48
2023-05-05T17:53:57.103Z,101071.70
2023-05-05T17:59:00.894Z,101074.55
2023-05-05T18:04:04.446Z,101077.20
2023-05-05T18:09:09.207Z,101083.54
2023-05-05T18:14:14.146Z,101081.63
2023-05-05T18:19:17.255Z,101087.06
2023-05-05T18:24:20.771Z,101091.95
2023-05-05T18:29:23.992Z,101099.44
2023-05-05T18:34:27.097Z,101100.65
2023-05-05T18:39:30.521Z,101105.86
2023-05-05T18:44:34.948Z,101106.01
2023-05-05T18:49:38.169Z,101113.11
2023-05-05T18:54:41.285Z,101120.05
2023-05-05T18:59:44.283Z,101127.50
2023-05-05T19:04:47.208Z,101124.98
2023-05-05T19:09:50.900Z,101132.56
2023-05-05T19:14:53.808Z,101128.46
2023-05-05T19:19:56.918Z,101128.89
2023-05-05T19:24:59.921Z,101132.98
2023-05-05T19:30:05.078Z,101129.56
2023-05-05T19:35:10.700Z,101124.44
2023-05-05T19:40:14.156Z,101129.39
2023-05-05T19:45:17.792Z,101128.27
2023-05-05T19:50:21.507Z,101136.67
2023-05-05T19:55:24.721Z,101134.29
2023-05-05T20:00:27.820Z,101136.25
2023-05-05T20:05:31.030Z,101141.14
2023-05-05T20:10:34.754Z,101141.00
2023-05-05T20:15:37.740Z,101138.27
2023-05-05T20:20:40.872Z,101140.57
2023-05-05T20:25:43.894Z,101147.54
2023-05-05T20:30:46.885Z,101145.29
2023-05-05T20:35:49.790Z,101145.13
2023-05-05T20:40:53.008Z,101142.93
2023-05-05T20:45:56.316Z,101152.70
2023-05-05T20:51:03.026Z,101148.77
2023-05-05T20:56:08.002Z,101145.28
2023-05-05T21:01:11.950Z,101147.66
2023-05-05T21:06:14.996Z,101146.95
2023-05-05T21:11:18.009Z,101149.36
2023-05-05T21:16:21.097Z,101152.27
2023-05-05T21:21:24.727Z,101155.18
2023-05-05T21:26:27.944Z,101151.30
2023-05-05T21:31:31.177Z,101150.24
2023-05-05T21:36:34.566Z,101154.41
2023-05-05T21:41:37.689Z,101149.05
2023-05-05T21:46:40.860Z,101152.70
2023-05-05T21:51:45.026Z,101155.02
2023-05-05T21:56:48.134Z,101154.61
2023-05-05T22:01:51.353Z,101158.34
2023-05-05T22:06:54.452Z,101154.58
2023-05-05T22:11:57.757Z,101151.89
2023-05-05T22:17:00.873Z,101155.06
2023-05-05T22:22:04.188Z,101153.71
2023-05-05T22:27:07.327Z,101150.83
2023-05-05T22:32:10.508Z,101150.98
2023-05-05T22:37:14.234Z,101151.57
2023-05-05T22:42:17.343Z,101148.70
2023-05-05T22:47:20.503Z,101149.28
2023-05-05T22:52:25.815Z,101150.14
2023-05-05T22:57:28.824Z,101143.85
2023-05-05T23:02:32.123Z,101145.98
2023-05-05T23:07:35.340Z,101153.69
2023-05-05T23:12:38.561Z,101154.82
2023-05-05T23:17:41.593Z,101152.64
2023-05-05T23:22:44.664Z,101154.23
2023-05-05T23:27:48.191Z,101147.60
2023-05-05T23:32:51.227Z,101142.95
2023-05-05T23:37:54.299Z,101141.39
2023-05-05T23:42:57.310Z,101134.16
2023-05-05T23:48:00.560Z,101139.54
2023-05-05T23:53:03.622Z,101141.80
2023-05-05T23:58:06.735Z,101145.70
